Time;durP1;ratioP1;P1;durP2;ratioP2;P2;SDS_P1;SDS_P2;PMS_P1;PMS_P2;Temp;Humidity;BMP_temperature;BMP_pressure;BME280_temperature;BME280_humidity;BME280_pressure;Samples;Min_cycle;Max_cycle;Signal;HPM_P1;HPM_P2
2021/12/07 00:01:21;;;;;;;25.02;15.57;;;2.70;99.90;;;;;;5064751;28;20045;-81
2021/12/07 00:03:48;;;;;;;19.85;13.50;;;2.70;99.90;;;;;;5066372;28;20048;-79
2021/12/07 00:06:14;;;;;;;20.80;14.13;;;2.70;99.90;;;;;;5055403;28;20053;-81
2021/12/07 00:08:41;;;;;;;21.65;14.10;;;2.70;99.90;;;;;;5057459;28;20049;-80
2021/12/07 00:11:08;;;;;;;21.60;15.32;;;2.70;99.90;;;;;;5061445;28;20053;-81
2021/12/07 00:13:37;;;;;;;19.80;14.57;;;2.60;99.90;;;;;;5064262;28;20060;-81
2021/12/07 00:16:04;;;;;;;20.88;14.15;;;2.60;99.90;;;;;;5063114;28;20052;-81
2021/12/07 00:18:30;;;;;;;16.13;12.75;;;2.60;99.90;;;;;;5064769;28;20098;-79
2021/12/07 00:20:57;;;;;;;20.98;14.13;;;2.60;99.90;;;;;;5064841;28;20060;-81
2021/12/07 00:23:23;;;;;;;19.55;14.57;;;2.60;99.90;;;;;;5068213;28;20052;-81
2021/12/07 00:25:50;;;;;;;22.00;15.18;;;2.60;99.90;;;;;;5068610;28;20052;-80
2021/12/07 00:28:19;;;;;;;16.42;12.15;;;2.60;99.90;;;;;;5065915;28;20056;-80
2021/12/07 00:30:45;;;;;;;19.88;14.00;;;2.50;99.90;;;;;;5060454;28;20053;-81
2021/12/07 00:33:17;;;;;;;21.67;14.95;;;2.50;99.90;;;;;;5065845;28;20058;-80
2021/12/07 00:35:44;;;;;;;22.33;14.55;;;2.50;99.90;;;;;;5066117;28;20045;-80
2021/12/07 00:38:10;;;;;;;20.98;13.45;;;2.40;99.90;;;;;;5058516;28;20044;-81
2021/12/07 00:40:37;;;;;;;22.77;14.60;;;2.40;99.90;;;;;;5055082;28;20052;-81
2021/12/07 00:43:03;;;;;;;19.20;13.70;;;2.50;99.90;;;;;;5054906;28;20064;-81
2021/12/07 00:45:32;;;;;;;21.10;13.02;;;2.50;99.90;;;;;;5057808;28;20044;-81
2021/12/07 00:47:59;;;;;;;28.65;15.68;;;2.40;99.90;;;;;;5061400;28;20048;-81
2021/12/07 00:50:25;;;;;;;20.08;13.88;;;2.30;99.90;;;;;;5055222;28;20052;-81
2021/12/07 00:52:52;;;;;;;19.20;13.13;;;2.30;99.90;;;;;;5064518;28;20056;-82
2021/12/07 00:55:18;;;;;;;21.15;14.73;;;2.20;99.90;;;;;;5065562;28;20056;-81
2021/12/07 00:57:45;;;;;;;20.73;14.23;;;2.30;99.90;;;;;;5068241;28;20045;-82
2021/12/07 01:00:11;;;;;;;20.95;13.98;;;2.20;99.90;;;;;;5060303;28;20044;-82
2021/12/07 01:02:38;;;;;;;19.48;13.65;;;2.20;99.90;;;;;;5068958;28;20472;-80
2021/12/07 01:05:11;;;;;;;20.00;13.02;;;2.10;99.90;;;;;;5063596;28;20476;-81
2021/12/07 01:07:56;;;;;;;17.98;13.75;;;2.10;99.90;;;;;;5058561;28;20083;-81
2021/12/07 01:26:56;;;;;;;24.98;15.38;;;1.80;99.90;;;;;;5040565;28;20060;-81
2021/12/07 01:29:25;;;;;;;25.75;16.38;;;1.80;99.90;;;;;;5065135;28;20048;-81
2021/12/07 01:32:00;;;;;;;21.70;15.77;;;1.80;99.90;;;;;;5067071;28;20052;-81
2021/12/07 01:34:52;;;;;;;24.08;14.88;;;1.80;99.90;;;;;;5056333;28;20114;-81
2021/12/07 01:37:32;;;;;;;26.83;15.30;;;1.90;99.90;;;;;;5064231;28;20110;-81
2021/12/07 01:40:23;;;;;;;22.65;15.02;;;1.80;99.90;;;;;;5071473;28;20056;-80
2021/12/07 01:45:57;;;;;;;21.55;14.43;;;1.80;99.90;;;;;;5064585;28;20500;-81
2021/12/07 01:51:24;;;;;;;19.63;13.50;;;1.70;99.90;;;;;;5070713;28;20505;-81
2021/12/07 01:59:33;;;;;;;22.98;15.52;;;1.70;99.90;;;;;;5067383;28;20480;-80
2021/12/07 02:02:00;;;;;;;20.20;14.15;;;1.60;99.90;;;;;;5062419;28;20078;-82
2021/12/07 02:04:26;;;;;;;23.90;15.40;;;1.50;99.90;;;;;;5066750;28;20041;-83
2021/12/07 02:06:53;;;;;;;30.00;15.95;;;1.50;99.90;;;;;;5066009;28;20101;-82
2021/12/07 02:09:19;;;;;;;28.05;13.85;;;1.40;99.90;;;;;;5062691;28;20052;-82
2021/12/07 02:11:48;;;;;;;23.35;14.93;;;1.40;99.90;;;;;;5064279;28;20051;-82
2021/12/07 02:14:18;;;;;;;22.17;14.93;;;1.30;99.90;;;;;;5061207;28;20122;-82
2021/12/07 02:16:45;;;;;;;23.13;15.48;;;1.30;99.90;;;;;;5060932;28;20496;-83
2021/12/07 02:19:11;;;;;;;25.30;15.32;;;1.30;99.90;;;;;;5064881;28;20067;-83
2021/12/07 02:21:38;;;;;;;23.58;14.93;;;1.20;99.90;;;;;;5071837;28;20048;-83
2021/12/07 02:24:04;;;;;;;22.00;14.50;;;1.20;99.90;;;;;;5061198;28;20048;-83
2021/12/07 02:26:31;;;;;;;20.00;13.95;;;1.20;99.90;;;;;;5059611;28;20052;-83
2021/12/07 02:28:58;;;;;;;26.63;16.63;;;1.20;99.90;;;;;;5062349;28;20431;-82
2021/12/07 02:31:25;;;;;;;24.98;16.35;;;1.20;99.90;;;;;;5068654;28;20053;-83
2021/12/07 02:33:51;;;;;;;22.77;14.85;;;1.10;99.90;;;;;;5068062;28;20053;-83
2021/12/07 02:36:18;;;;;;;27.17;15.20;;;1.10;99.90;;;;;;5071499;28;20060;-82
2021/12/07 02:38:44;;;;;;;23.92;14.93;;;1.00;99.90;;;;;;5055629;28;20052;-83
2021/12/07 02:41:11;;;;;;;19.98;14.32;;;1.00;99.90;;;;;;5060924;28;20056;-82
2021/12/07 02:43:37;;;;;;;21.02;13.90;;;1.00;99.90;;;;;;5063832;28;20052;-83
2021/12/07 02:46:04;;;;;;;23.40;14.30;;;0.90;99.90;;;;;;5061434;28;20060;-82
2021/12/07 02:48:30;;;;;;;22.50;15.30;;;0.90;99.90;;;;;;5064954;28;20049;-82
2021/12/07 02:50:57;;;;;;;24.77;15.68;;;0.90;99.90;;;;;;5065359;28;20078;-82
2021/12/07 02:53:25;;;;;;;25.05;15.30;;;0.90;99.90;;;;;;5059987;28;20059;-82
2021/12/07 02:55:52;;;;;;;21.02;14.13;;;0.90;99.90;;;;;;5065519;28;20041;-83
2021/12/07 02:58:19;;;;;;;25.60;15.77;;;0.90;99.90;;;;;;5066728;28;20064;-81
2021/12/07 03:00:51;;;;;;;25.70;14.80;;;0.80;99.90;;;;;;5062008;28;20045;-82
2021/12/07 03:03:18;;;;;;;21.55;14.48;;;0.80;99.90;;;;;;5064249;28;20143;-82
2021/12/07 03:05:51;;;;;;;23.85;15.93;;;0.80;99.90;;;;;;5060298;28;20044;-80
2021/12/07 03:27:24;;;;;;;21.10;15.15;;;0.80;99.90;;;;;;5063579;28;20084;-82
2021/12/07 03:29:50;;;;;;;23.15;15.52;;;0.80;99.90;;;;;;5061170;28;20060;-82
2021/12/07 03:32:17;;;;;;;24.15;14.13;;;0.80;99.90;;;;;;5063313;28;20049;-82
2021/12/07 03:34:43;;;;;;;20.60;14.77;;;0.90;99.90;;;;;;5069732;28;20052;-83
2021/12/07 03:37:10;;;;;;;22.35;14.48;;;0.80;99.90;;;;;;5062987;28;20456;-82
2021/12/07 03:39:37;;;;;;;20.23;13.77;;;0.80;99.90;;;;;;5059884;28;20048;-82
2021/12/07 03:42:03;;;;;;;21.23;14.50;;;0.80;99.90;;;;;;5063827;28;20044;-82
2021/12/07 03:44:30;;;;;;;21.40;14.30;;;0.80;99.90;;;;;;5065425;28;20056;-83
2021/12/07 03:46:56;;;;;;;22.17;14.48;;;0.80;99.90;;;;;;5065589;28;20081;-82
2021/12/07 03:49:23;;;;;;;23.98;14.95;;;0.80;99.90;;;;;;5065935;28;20052;-83
2021/12/07 03:51:49;;;;;;;21.08;15.20;;;0.80;99.90;;;;;;5066084;28;20059;-82
2021/12/07 03:54:16;;;;;;;24.05;16.63;;;0.80;99.90;;;;;;5065933;28;20044;-82
2021/12/07 03:56:42;;;;;;;21.45;15.00;;;0.80;99.90;;;;;;5066215;28;20056;-83
2021/12/07 03:59:09;;;;;;;24.08;16.48;;;0.90;99.90;;;;;;5059005;28;20053;-82
2021/12/07 04:01:35;;;;;;;26.17;16.95;;;0.90;99.90;;;;;;5067708;28;20079;-81
2021/12/07 04:04:03;;;;;;;26.30;15.55;;;0.90;99.90;;;;;;5059596;28;20491;-82
2021/12/07 04:06:30;;;;;;;26.25;16.02;;;0.90;99.90;;;;;;5067535;28;20052;-82
2021/12/07 04:08:56;;;;;;;27.20;17.35;;;0.90;99.90;;;;;;5063594;28;20045;-81
2021/12/07 04:11:23;;;;;;;26.13;17.52;;;0.90;99.90;;;;;;5063479;28;20048;-82
2021/12/07 04:13:49;;;;;;;21.98;15.27;;;0.90;99.90;;;;;;5066647;28;20044;-81
2021/12/07 04:16:16;;;;;;;27.23;16.63;;;0.90;99.90;;;;;;5068185;28;20052;-81
2021/12/07 04:18:42;;;;;;;26.52;16.27;;;1.00;99.90;;;;;;5063989;28;20052;-82
2021/12/07 04:21:09;;;;;;;24.65;15.15;;;1.00;99.90;;;;;;5061983;28;20045;-82
2021/12/07 04:23:35;;;;;;;29.52;19.08;;;1.00;99.90;;;;;;5064990;28;20056;-83
2021/12/07 04:26:02;;;;;;;31.25;18.60;;;1.00;99.90;;;;;;5064035;28;20127;-82
2021/12/07 04:28:28;;;;;;;24.48;16.63;;;1.00;99.90;;;;;;5057067;28;20055;-83
2021/12/07 04:30:55;;;;;;;25.08;17.35;;;0.90;99.90;;;;;;5057096;28;20052;-82
2021/12/07 04:33:22;;;;;;;28.92;18.40;;;1.10;99.90;;;;;;5059863;28;20050;-82
2021/12/07 04:35:48;;;;;;;29.00;18.92;;;1.00;99.90;;;;;;5062302;28;20055;-82
2021/12/07 04:38:15;;;;;;;26.67;17.58;;;1.00;99.90;;;;;;5056249;28;20060;-81
2021/12/07 04:40:41;;;;;;;26.58;17.40;;;1.00;99.90;;;;;;5064819;28;20044;-82
2021/12/07 04:43:08;;;;;;;26.80;16.77;;;1.00;99.90;;;;;;5055300;28;20044;-82
2021/12/07 04:45:47;;;;;;;25.85;17.27;;;1.10;99.90;;;;;;5053909;28;20049;-82
2021/12/07 04:48:36;;;;;;;27.58;18.45;;;1.10;99.90;;;;;;5066526;28;20062;-82
2021/12/07 04:59:15;;;;;;;28.88;18.58;;;1.10;99.90;;;;;;5063220;28;20089;-82
2021/12/07 05:01:41;;;;;;;31.48;20.55;;;1.10;99.90;;;;;;5063947;28;20045;-82
2021/12/07 05:04:12;;;;;;;30.00;18.17;;;1.10;99.90;;;;;;5065761;28;20044;-81
2021/12/07 05:06:45;;;;;;;28.02;18.90;;;1.00;99.90;;;;;;5063363;28;20113;-82
2021/12/07 05:09:29;;;;;;;25.90;17.45;;;1.10;99.90;;;;;;5069017;28;20376;-83
2021/12/07 05:12:18;;;;;;;26.55;17.08;;;1.10;99.90;;;;;;5073461;28;20078;-84
2021/12/07 05:14:45;;;;;;;28.58;18.45;;;1.10;99.90;;;;;;5061298;28;20040;-82
2021/12/07 05:17:21;;;;;;;24.33;16.75;;;1.10;99.90;;;;;;5065883;28;20036;-82
2021/12/07 05:25:36;;;;;;;25.67;17.60;;;1.00;99.90;;;;;;5065445;28;20079;-82
2021/12/07 05:39:02;;;;;;;29.50;19.88;;;1.00;99.90;;;;;;5059890;28;20052;-81
2021/12/07 05:41:28;;;;;;;29.48;18.35;;;1.00;99.90;;;;;;5069285;28;20114;-82
2021/12/07 05:43:55;;;;;;;24.50;18.50;;;1.00;99.90;;;;;;5063173;28;20041;-81
2021/12/07 05:46:21;;;;;;;29.98;18.98;;;1.00;99.90;;;;;;5068619;28;20040;-81
2021/12/07 05:48:48;;;;;;;29.08;17.92;;;1.10;99.90;;;;;;5058952;28;20056;-81
2021/12/07 05:51:14;;;;;;;29.13;18.45;;;1.00;99.90;;;;;;5069251;28;20048;-82
2021/12/07 05:53:41;;;;;;;26.67;19.05;;;1.00;99.90;;;;;;5072544;28;20127;-82
2021/12/07 05:56:07;;;;;;;35.85;20.23;;;1.00;99.90;;;;;;5071117;28;20098;-82
2021/12/07 05:58:34;;;;;;;31.02;16.52;;;1.00;99.90;;;;;;5070854;28;20060;-81
2021/12/07 06:01:00;;;;;;;29.15;18.90;;;0.90;99.90;;;;;;5069918;28;20055;-81
2021/12/07 06:03:27;;;;;;;28.27;18.40;;;1.00;99.90;;;;;;5065748;28;20045;-82
2021/12/07 06:05:54;;;;;;;30.90;18.05;;;0.90;99.90;;;;;;5064493;28;20059;-82
2021/12/07 06:08:20;;;;;;;27.40;18.05;;;0.90;99.90;;;;;;5063235;28;20449;-82
2021/12/07 06:10:47;;;;;;;31.35;18.25;;;0.90;99.90;;;;;;5069505;28;20476;-81
2021/12/07 06:13:13;;;;;;;26.85;18.27;;;0.90;99.90;;;;;;5061368;28;20387;-82
2021/12/07 06:15:43;;;;;;;33.67;18.48;;;0.80;99.90;;;;;;5068154;28;20063;-82
2021/12/07 06:18:10;;;;;;;25.98;18.23;;;0.80;99.90;;;;;;5055767;28;20060;-81
2021/12/07 06:20:37;;;;;;;25.83;17.25;;;0.80;99.90;;;;;;5068296;28;20071;-82
2021/12/07 06:23:03;;;;;;;34.80;18.48;;;0.80;99.90;;;;;;5064403;28;20040;-81
2021/12/07 06:25:30;;;;;;;30.88;18.40;;;0.80;99.90;;;;;;5054857;28;20053;-83
2021/12/07 06:27:56;;;;;;;26.25;16.85;;;0.80;99.90;;;;;;5061148;28;20102;-82
2021/12/07 06:30:23;;;;;;;29.98;17.80;;;0.80;99.90;;;;;;5062885;28;20048;-83
2021/12/07 06:32:50;;;;;;;25.88;17.95;;;0.80;99.90;;;;;;5071039;28;20067;-82
2021/12/07 06:35:16;;;;;;;27.70;17.92;;;0.80;99.90;;;;;;5062519;28;20484;-81
2021/12/07 06:37:43;;;;;;;30.13;18.77;;;0.80;99.90;;;;;;5063190;28;20396;-82
2021/12/07 06:40:10;;;;;;;31.33;18.33;;;0.70;99.90;;;;;;5057504;28;20048;-80
2021/12/07 06:42:38;;;;;;;28.95;19.67;;;0.80;99.90;;;;;;5059692;28;20049;-81
2021/12/07 06:45:05;;;;;;;26.55;17.42;;;0.70;99.90;;;;;;5057876;28;20056;-81
2021/12/07 06:47:31;;;;;;;33.80;18.92;;;0.80;99.90;;;;;;5064632;28;20058;-82
2021/12/07 06:49:58;;;;;;;30.80;18.63;;;0.80;99.90;;;;;;5058464;28;20056;-82
2021/12/07 06:52:24;;;;;;;34.40;18.95;;;0.70;99.90;;;;;;5060571;28;20057;-82
2021/12/07 06:54:51;;;;;;;26.58;17.05;;;0.70;99.90;;;;;;5068794;28;20045;-82
2021/12/07 06:57:17;;;;;;;28.58;17.55;;;0.70;99.90;;;;;;5062568;28;20057;-82
2021/12/07 06:59:45;;;;;;;31.60;18.58;;;0.70;99.90;;;;;;5063487;28;20060;-82
2021/12/07 07:02:12;;;;;;;32.35;18.02;;;0.80;99.90;;;;;;5056058;28;20455;-81
2021/12/07 07:04:38;;;;;;;28.70;16.88;;;0.70;99.90;;;;;;5060996;28;20036;-81
2021/12/07 07:07:05;;;;;;;26.58;17.02;;;0.70;99.90;;;;;;5064826;28;20409;-81
2021/12/07 07:09:31;;;;;;;25.92;17.55;;;0.70;99.90;;;;;;5066020;28;20051;-82
2021/12/07 07:11:58;;;;;;;29.13;18.58;;;0.70;99.90;;;;;;5064969;28;20045;-82
2021/12/07 07:14:24;;;;;;;28.23;17.65;;;0.80;99.90;;;;;;5063882;28;20598;-81
2021/12/07 07:16:51;;;;;;;28.38;17.17;;;0.90;99.90;;;;;;5063787;28;20049;-82
2021/12/07 07:19:17;;;;;;;29.05;18.45;;;0.90;99.90;;;;;;5065553;28;20064;-82
2021/12/07 07:21:44;;;;;;;28.08;17.52;;;0.90;99.90;;;;;;5068035;28;20048;-82
2021/12/07 07:24:10;;;;;;;26.67;17.05;;;1.00;99.90;;;;;;5059216;28;20052;-82
2021/12/07 07:26:37;;;;;;;25.40;17.13;;;1.00;99.90;;;;;;5067274;28;20048;-82
2021/12/07 07:29:04;;;;;;;27.73;17.30;;;1.00;99.90;;;;;;5060050;28;20041;-81
2021/12/07 07:31:30;;;;;;;34.72;17.73;;;1.00;99.90;;;;;;5060443;28;20056;-82
2021/12/07 07:33:57;;;;;;;24.33;15.25;;;1.00;99.90;;;;;;5059451;28;20048;-82
2021/12/07 07:36:23;;;;;;;26.20;14.52;;;1.00;99.90;;;;;;5061425;28;20052;-81
2021/12/07 07:38:50;;;;;;;30.23;16.65;;;1.00;99.90;;;;;;5063599;28;20052;-81
2021/12/07 07:41:16;;;;;;;20.98;13.70;;;0.90;99.90;;;;;;5064620;28;20057;-82
2021/12/07 07:43:43;;;;;;;27.33;15.57;;;1.00;99.90;;;;;;5062652;28;20045;-81
2021/12/07 07:46:09;;;;;;;18.92;12.90;;;1.00;99.90;;;;;;5062637;28;20059;-81
2021/12/07 07:48:36;;;;;;;21.75;13.90;;;1.00;99.90;;;;;;5063159;28;20044;-82
2021/12/07 07:51:02;;;;;;;31.10;13.82;;;1.00;99.90;;;;;;5062901;28;20040;-82
2021/12/07 07:53:29;;;;;;;22.25;14.30;;;1.10;99.90;;;;;;5058606;28;20057;-82
2021/12/07 07:55:55;;;;;;;22.40;13.35;;;1.10;99.90;;;;;;5077680;28;20045;-82
2021/12/07 07:58:22;;;;;;;26.48;14.40;;;1.20;99.90;;;;;;5065274;28;20389;-81
2021/12/07 08:00:48;;;;;;;20.45;13.48;;;1.20;99.90;;;;;;5067803;28;20048;-82
2021/12/07 08:03:15;;;;;;;26.65;13.05;;;1.30;99.90;;;;;;5063297;28;20037;-82
2021/12/07 08:05:41;;;;;;;24.20;13.90;;;1.30;99.90;;;;;;5064796;28;20055;-82
2021/12/07 08:08:08;;;;;;;21.30;13.45;;;1.40;99.90;;;;;;5065835;28;20052;-80
2021/12/07 08:10:35;;;;;;;22.45;14.10;;;1.30;99.90;;;;;;5062196;28;20059;-82
2021/12/07 08:13:01;;;;;;;22.27;12.57;;;1.40;99.90;;;;;;5054620;28;20055;-81
2021/12/07 08:15:28;;;;;;;17.20;11.98;;;1.40;99.90;;;;;;5056878;28;20053;-81
2021/12/07 08:17:54;;;;;;;19.75;12.95;;;1.50;99.90;;;;;;5070419;28;20056;-81
2021/12/07 08:20:21;;;;;;;20.85;11.85;;;1.50;99.90;;;;;;5064765;28;20063;-81
2021/12/07 08:22:47;;;;;;;30.35;13.98;;;1.50;99.90;;;;;;5064521;28;20127;-81
2021/12/07 08:25:14;;;;;;;18.92;12.68;;;1.50;99.90;;;;;;5062558;28;20052;-81
2021/12/07 08:27:40;;;;;;;24.63;12.55;;;1.50;99.90;;;;;;5065409;28;20048;-81
2021/12/07 08:30:07;;;;;;;23.33;11.57;;;1.50;99.90;;;;;;5065407;28;20052;-80
2021/12/07 08:32:34;;;;;;;24.38;11.48;;;1.60;99.90;;;;;;5060062;28;20049;-81
2021/12/07 08:35:00;;;;;;;20.00;11.88;;;1.60;99.90;;;;;;5063912;28;20047;-81
2021/12/07 08:37:27;;;;;;;46.72;14.23;;;1.60;99.90;;;;;;5066169;28;20050;-82
2021/12/07 08:39:53;;;;;;;20.98;12.77;;;1.60;99.90;;;;;;5063559;28;20049;-81
2021/12/07 08:42:20;;;;;;;24.13;12.02;;;1.60;99.90;;;;;;5065114;28;20052;-81
2021/12/07 08:44:46;;;;;;;20.38;12.43;;;1.60;99.90;;;;;;5060713;28;20522;-81
2021/12/07 08:47:13;;;;;;;19.67;11.68;;;1.70;99.90;;;;;;5064120;28;20048;-80
2021/12/07 08:49:39;;;;;;;27.00;13.55;;;1.80;99.90;;;;;;5055177;28;20059;-82
2021/12/07 08:52:06;;;;;;;22.75;13.02;;;1.90;99.90;;;;;;5063880;28;20056;-81
2021/12/07 08:59:39;;;;;;;24.73;13.75;;;2.00;99.90;;;;;;5052647;28;20053;-81
2021/12/07 09:00:05;;;;;;;23.70;13.68;;;2.10;99.90;;;;;;5050354;28;20389;-81
2021/12/07 09:02:33;;;;;;;17.58;13.10;;;2.20;99.90;;;;;;5051543;28;20392;-81
2021/12/07 09:04:59;;;;;;;23.15;12.13;;;2.20;99.90;;;;;;5064002;28;20044;-81
2021/12/07 09:07:26;;;;;;;21.40;13.15;;;2.40;99.90;;;;;;5060119;28;20499;-81
2021/12/07 09:09:52;;;;;;;19.45;11.25;;;2.40;99.90;;;;;;5049462;28;20602;-81
2021/12/07 09:12:19;;;;;;;23.73;12.07;;;2.40;99.90;;;;;;5047277;28;20777;-81
2021/12/07 09:14:45;;;;;;;20.35;11.60;;;2.50;99.90;;;;;;5059132;28;20048;-81
2021/12/07 09:17:12;;;;;;;17.38;10.85;;;2.60;99.90;;;;;;5055641;28;20053;-81
2021/12/07 09:19:39;;;;;;;18.60;12.07;;;2.60;99.90;;;;;;5056629;28;20052;-81
2021/12/07 09:22:05;;;;;;;19.80;12.25;;;2.70;99.90;;;;;;5055102;28;20045;-81
2021/12/07 09:24:32;;;;;;;15.10;10.75;;;2.70;99.90;;;;;;5055285;28;20041;-81
2021/12/07 09:26:58;;;;;;;18.80;11.13;;;2.80;99.90;;;;;;5049509;28;20071;-81
2021/12/07 09:29:25;;;;;;;20.98;10.73;;;2.80;99.90;;;;;;5059206;28;20407;-81
2021/12/07 09:31:51;;;;;;;18.88;12.15;;;2.90;99.90;;;;;;5059239;28;20052;-81
2021/12/07 09:34:18;;;;;;;19.05;10.90;;;3.00;99.90;;;;;;5056171;28;20045;-80
2021/12/07 09:36:44;;;;;;;17.88;10.38;;;3.00;99.90;;;;;;5050878;28;20045;-81
2021/12/07 09:39:11;;;;;;;20.35;10.05;;;3.10;99.90;;;;;;5063027;28;20053;-81
2021/12/07 09:41:38;;;;;;;17.20;10.05;;;3.20;99.90;;;;;;5054162;28;20652;-81
2021/12/07 09:44:04;;;;;;;17.05;9.77;;;3.20;99.90;;;;;;5059948;28;20404;-81
2021/12/07 09:46:31;;;;;;;22.23;11.77;;;3.30;99.90;;;;;;5052803;28;20479;-82
2021/12/07 09:48:57;;;;;;;15.38;11.05;;;3.30;99.90;;;;;;5061909;28;20056;-81
2021/12/07 09:51:24;;;;;;;23.45;10.50;;;3.40;99.90;;;;;;5059774;28;20048;-81
2021/12/07 09:53:50;;;;;;;18.30;10.25;;;3.40;99.90;;;;;;5064316;28;20048;-82
2021/12/07 09:56:18;;;;;;;19.27;10.55;;;3.50;99.90;;;;;;5059917;28;20126;-82
2021/12/07 09:58:44;;;;;;;12.05;8.77;;;3.60;99.90;;;;;;5052402;28;20054;-81
2021/12/07 10:01:11;;;;;;;15.70;10.13;;;3.60;99.90;;;;;;5054038;28;20103;-81
2021/12/07 10:03:37;;;;;;;19.98;10.02;;;3.70;99.90;;;;;;5052548;28;20056;-81
2021/12/07 10:06:04;;;;;;;19.55;10.38;;;3.70;99.90;;;;;;5054339;28;20388;-81
2021/12/07 10:08:30;;;;;;;22.27;10.70;;;3.80;99.90;;;;;;5051365;28;20499;-82
2021/12/07 10:10:57;;;;;;;24.42;10.45;;;3.80;99.90;;;;;;5063307;28;20484;-82
2021/12/07 10:13:23;;;;;;;24.95;10.25;;;3.90;99.90;;;;;;5052692;28;20064;-82
2021/12/07 10:15:50;;;;;;;17.15;9.77;;;4.00;99.90;;;;;;5062447;28;20040;-82
2021/12/07 10:18:16;;;;;;;16.38;8.98;;;4.00;99.90;;;;;;5059290;28;20500;-82
2021/12/07 10:20:43;;;;;;;17.15;10.25;;;4.10;99.90;;;;;;5063702;28;20228;-82
2021/12/07 10:23:10;;;;;;;22.48;9.13;;;4.10;99.90;;;;;;5059851;28;20064;-83
2021/12/07 10:25:36;;;;;;;18.08;9.63;;;4.30;99.90;;;;;;5055559;28;20400;-83
2021/12/07 10:28:03;;;;;;;28.15;9.23;;;4.40;99.90;;;;;;5055228;28;20060;-83
2021/12/07 10:30:29;;;;;;;22.10;9.35;;;4.40;99.90;;;;;;5058533;28;20060;-83
2021/12/07 10:32:56;;;;;;;19.17;9.45;;;4.50;99.90;;;;;;5055316;28;20476;-83
2021/12/07 10:35:22;;;;;;;13.05;8.15;;;4.60;99.90;;;;;;5064388;28;20049;-82
2021/12/07 10:37:49;;;;;;;20.65;9.57;;;4.50;99.90;;;;;;5059588;28;20127;-81
2021/12/07 10:40:16;;;;;;;13.10;8.52;;;4.50;99.90;;;;;;5060077;28;20048;-83
2021/12/07 10:42:43;;;;;;;16.08;8.60;;;4.40;99.90;;;;;;5063704;28;20076;-82
2021/12/07 10:45:10;;;;;;;16.02;9.70;;;4.30;99.90;;;;;;5056051;28;20041;-83
2021/12/07 10:47:36;;;;;;;15.02;9.02;;;4.40;99.90;;;;;;5063285;28;20048;-83
2021/12/07 10:50:03;;;;;;;16.52;8.80;;;4.50;99.90;;;;;;5063808;28;20052;-83
2021/12/07 10:52:29;;;;;;;18.23;8.68;;;4.60;99.90;;;;;;5060065;28;20040;-83
2021/12/07 10:54:56;;;;;;;19.67;8.40;;;4.60;99.90;;;;;;5071742;28;20044;-83
2021/12/07 10:57:23;;;;;;;11.18;6.88;;;4.70;99.90;;;;;;5058493;28;20049;-83
2021/12/07 10:59:49;;;;;;;14.98;9.13;;;4.80;99.90;;;;;;5063553;28;20094;-83
2021/12/07 11:02:16;;;;;;;13.50;7.93;;;4.80;99.90;;;;;;5068678;28;20068;-83
2021/12/07 11:04:43;;;;;;;12.98;6.88;;;4.90;99.90;;;;;;5065635;28;20047;-82
2021/12/07 11:07:10;;;;;;;16.30;8.00;;;4.90;99.90;;;;;;5060783;28;20052;-83
2021/12/07 11:09:36;;;;;;;18.80;8.75;;;4.90;99.90;;;;;;5057487;28;20048;-83
2021/12/07 11:12:03;;;;;;;23.92;8.35;;;5.00;99.90;;;;;;5065291;28;20052;-83
2021/12/07 11:14:29;;;;;;;15.50;7.65;;;5.00;99.90;;;;;;5063909;28;20049;-83
2021/12/07 11:16:56;;;;;;;16.70;7.68;;;5.00;99.90;;;;;;5059173;28;20048;-85
2021/12/07 11:19:23;;;;;;;16.88;7.53;;;5.10;99.90;;;;;;5062710;28;20051;-86
2021/12/07 11:21:49;;;;;;;16.05;7.32;;;5.10;99.90;;;;;;5055034;28;20047;-84
2021/12/07 11:24:16;;;;;;;20.95;7.60;;;5.20;99.90;;;;;;5057449;28;20101;-85
2021/12/07 11:29:42;;;;;;;12.90;7.43;;;5.20;99.90;;;;;;5070770;28;20045;-82
2021/12/07 11:32:09;;;;;;;16.80;6.75;;;5.20;99.90;;;;;;5062316;28;20123;-83
2021/12/07 11:34:35;;;;;;;13.68;7.28;;;5.30;99.90;;;;;;5060398;28;20154;-83
2021/12/07 11:37:02;;;;;;;21.17;8.07;;;5.30;99.90;;;;;;5061708;28;20092;-82
2021/12/07 11:39:29;;;;;;;17.30;6.55;;;5.40;99.90;;;;;;5054439;28;20443;-84
2021/12/07 11:41:56;;;;;;;20.00;7.50;;;5.40;99.90;;;;;;5066661;28;20056;-84
2021/12/07 11:44:23;;;;;;;11.35;6.22;;;5.40;99.90;;;;;;5054601;28;20416;-84
2021/12/07 11:46:50;;;;;;;14.23;5.90;;;5.40;99.90;;;;;;5058333;28;20044;-84
2021/12/07 11:49:16;;;;;;;17.92;6.32;;;5.50;99.90;;;;;;5060035;28;20048;-83
2021/12/07 11:51:43;;;;;;;11.68;6.65;;;5.50;99.90;;;;;;5065852;28;20047;-85
2021/12/07 11:54:09;;;;;;;17.27;5.82;;;5.60;99.90;;;;;;5061706;28;20056;-84
2021/12/07 11:56:36;;;;;;;13.55;6.75;;;5.60;99.90;;;;;;5063561;28;20048;-84
2021/12/07 11:59:02;;;;;;;16.77;6.75;;;5.60;99.90;;;;;;5062164;28;20056;-84
2021/12/07 12:01:29;;;;;;;17.42;6.57;;;5.60;99.90;;;;;;5066906;28;20051;-82
2021/12/07 12:03:56;;;;;;;11.95;6.00;;;5.60;99.90;;;;;;5062949;28;20048;-85
2021/12/07 12:06:22;;;;;;;16.27;6.50;;;5.50;99.90;;;;;;5056027;28;20055;-84
2021/12/07 12:08:49;;;;;;;11.43;6.10;;;5.40;99.90;;;;;;5059980;28;20240;-84
2021/12/07 12:11:16;;;;;;;17.38;6.32;;;5.30;99.90;;;;;;5052204;28;20055;-84
2021/12/07 12:13:44;;;;;;;18.63;6.60;;;5.40;99.90;;;;;;5062693;28;20053;-85
2021/12/07 12:16:10;;;;;;;12.30;5.93;;;5.50;99.90;;;;;;5060398;28;20098;-84
2021/12/07 12:18:37;;;;;;;17.27;6.93;;;5.60;99.90;;;;;;5063961;28;20052;-86
2021/12/07 12:21:03;;;;;;;20.58;5.97;;;5.60;99.90;;;;;;5055981;28;20065;-85
2021/12/07 12:23:33;;;;;;;12.30;6.38;;;5.60;99.90;;;;;;5052350;28;20463;-84
2021/12/07 12:25:59;;;;;;;21.85;6.78;;;5.60;99.90;;;;;;5059289;28;20098;-85
2021/12/07 12:28:26;;;;;;;10.07;6.15;;;5.60;99.90;;;;;;5059738;28;20574;-85
2021/12/07 12:30:52;;;;;;;17.23;6.32;;;5.60;99.90;;;;;;5056502;28;20048;-86
2021/12/07 12:33:19;;;;;;;20.70;6.53;;;5.60;99.90;;;;;;5063477;28;20063;-85
2021/12/07 12:35:45;;;;;;;15.02;6.32;;;5.50;99.90;;;;;;5056506;28;20056;-83
2021/12/07 12:38:12;;;;;;;12.15;5.32;;;5.60;99.90;;;;;;5051762;28;20053;-86
2021/12/07 12:40:38;;;;;;;17.65;5.82;;;5.60;99.90;;;;;;5054669;28;20073;-86
2021/12/07 12:43:05;;;;;;;17.92;6.28;;;5.70;99.90;;;;;;5053970;28;20543;-85
2021/12/07 12:45:34;;;;;;;10.90;6.15;;;5.70;99.90;;;;;;5064639;28;20044;-86
2021/12/07 12:48:01;;;;;;;10.73;5.93;;;5.70;99.90;;;;;;5054597;28;20059;-86
2021/12/07 12:50:29;;;;;;;21.70;6.80;;;5.70;99.90;;;;;;5053714;28;20048;-86
2021/12/07 12:52:57;;;;;;;15.98;6.78;;;5.70;99.90;;;;;;5060817;28;20118;-85
2021/12/07 12:55:24;;;;;;;16.33;6.72;;;5.70;99.90;;;;;;5058598;28;20407;-86
2021/12/07 12:57:51;;;;;;;11.40;6.15;;;5.70;99.90;;;;;;5058037;28;20787;-85
2021/12/07 13:00:17;;;;;;;20.25;5.78;;;5.70;99.90;;;;;;5055231;28;20064;-85
2021/12/07 13:02:44;;;;;;;10.90;5.30;;;5.70;99.90;;;;;;5050175;28;20062;-85
2021/12/07 13:05:14;;;;;;;15.45;6.03;;;5.60;99.90;;;;;;5053728;28;20060;-86
2021/12/07 13:07:41;;;;;;;10.55;5.25;;;5.60;99.90;;;;;;5050708;28;20056;-86
2021/12/07 13:10:07;;;;;;;12.70;5.55;;;5.60;99.90;;;;;;5051668;28;20415;-84
2021/12/07 13:12:34;;;;;;;14.77;5.38;;;5.60;99.90;;;;;;5056175;28;20398;-85
2021/12/07 13:15:00;;;;;;;9.75;6.38;;;5.50;99.90;;;;;;5049170;28;20053;-86
2021/12/07 13:17:27;;;;;;;10.82;5.38;;;5.50;99.90;;;;;;5066510;28;20048;-85
2021/12/07 13:19:54;;;;;;;11.48;5.47;;;5.40;99.90;;;;;;5054586;28;20045;-85
2021/12/07 13:22:20;;;;;;;18.98;5.93;;;5.40;99.90;;;;;;5052347;28;20155;-85
2021/12/07 13:24:48;;;;;;;12.43;6.13;;;5.40;99.90;;;;;;5054892;28;20050;-84
2021/12/07 13:27:14;;;;;;;13.90;5.35;;;5.30;99.90;;;;;;5051033;28;20057;-84
2021/12/07 13:29:41;;;;;;;10.30;5.82;;;5.30;99.90;;;;;;5063133;28;20056;-84
2021/12/07 13:32:07;;;;;;;15.35;5.30;;;5.30;99.90;;;;;;5055787;28;20045;-82
2021/12/07 13:34:34;;;;;;;16.08;5.38;;;5.20;99.90;;;;;;5060807;28;20044;-81
2021/12/07 13:37:01;;;;;;;13.85;5.15;;;5.20;99.90;;;;;;5059306;28;20488;-81
2021/12/07 13:39:28;;;;;;;12.88;5.97;;;5.20;99.90;;;;;;5056691;28;20052;-81
2021/12/07 13:41:54;;;;;;;18.48;6.72;;;5.20;99.90;;;;;;5059571;28;20049;-82
2021/12/07 13:44:21;;;;;;;15.57;6.20;;;5.20;99.90;;;;;;5058806;28;20060;-82
2021/12/07 13:46:47;;;;;;;24.05;7.30;;;5.20;99.90;;;;;;5062695;28;20053;-81
2021/12/07 13:49:14;;;;;;;12.38;6.30;;;5.20;99.90;;;;;;5066227;28;20059;-81
2021/12/07 13:51:40;;;;;;;20.10;7.47;;;5.10;99.90;;;;;;5060360;28;20056;-80
2021/12/07 13:54:07;;;;;;;19.95;7.32;;;5.10;99.90;;;;;;5057334;28;20127;-81
2021/12/07 13:56:34;;;;;;;16.77;7.07;;;5.10;99.90;;;;;;5054984;28;20052;-82
2021/12/07 13:59:00;;;;;;;11.60;7.47;;;5.00;99.90;;;;;;5051585;28;20052;-81